Time;durP1;ratioP1;P1;durP2;ratioP2;P2;SDS_P1;SDS_P2;PMS_P1;PMS_P2;Temp;Humidity;BMP_temperature;BMP_pressure;BME280_temperature;BME280_humidity;BME280_pressure;Samples;Min_cycle;Max_cycle;Signal;HPM_P1;HPM_P2
2021/12/13 00:02:23;;;;;;;31.23;11.75;;;;;;;-2.90;79.20;101154.19;5056146;28;20056;-86
2021/12/13 00:05:20;;;;;;;29.25;11.40;;;;;;;-2.93;79.24;101151.38;5056453;28;20057;-86
2021/12/13 00:07:58;;;;;;;37.72;13.00;;;;;;;-2.92;79.61;101154.06;5082885;28;20027;-86
2021/12/13 00:10:42;;;;;;;34.17;12.55;;;;;;;-2.92;79.23;101136.16;5078774;28;20053;-87
2021/12/13 00:13:36;;;;;;;37.67;12.13;;;;;;;-2.92;79.24;101140.38;5079018;28;20036;-86
2021/12/13 00:16:07;;;;;;;33.88;12.23;;;;;;;-2.92;79.28;101133.59;5073219;28;20054;-86
2021/12/13 00:18:39;;;;;;;32.85;11.85;;;;;;;-2.88;79.42;101133.06;5048769;28;20053;-86
2021/12/13 00:21:14;;;;;;;33.20;12.43;;;;;;;-2.86;79.07;101124.59;5049614;28;20056;-86
2021/12/13 00:24:07;;;;;;;35.53;13.07;;;;;;;-2.92;79.32;101117.38;5063009;28;20045;-88
2021/12/13 00:26:40;;;;;;;36.25;12.43;;;;;;;-3.01;79.41;101119.19;5055088;28;20143;-85
2021/12/13 00:29:13;;;;;;;37.65;13.20;;;;;;;-2.85;79.34;101144.31;5055814;28;20459;-87
2021/12/13 00:32:03;;;;;;;39.25;13.65;;;;;;;-2.87;78.86;101131.41;5055113;28;20053;-87
2021/12/13 00:34:43;;;;;;;32.47;13.10;;;;;;;-2.89;79.01;101128.72;5070157;28;20116;-87
2021/12/13 00:37:40;;;;;;;35.75;12.88;;;;;;;-2.88;78.98;101134.75;5061589;28;20176;-86
2021/12/13 00:40:13;;;;;;;36.38;13.15;;;;;;;-2.95;79.21;101115.44;5078453;28;20033;-85
2021/12/13 00:42:47;;;;;;;33.53;13.02;;;;;;;-2.95;78.78;101114.56;5076688;28;20045;-84
2021/12/13 00:45:18;;;;;;;38.75;14.45;;;;;;;-2.86;78.93;101120.41;5041128;28;20048;-87
2021/12/13 00:47:45;;;;;;;36.72;12.88;;;;;;;-2.81;79.15;101119.09;5064530;28;20123;-89
2021/12/13 00:50:38;;;;;;;38.90;14.10;;;;;;;-2.77;78.74;101115.09;5075181;28;20049;-88
2021/12/13 00:53:06;;;;;;;39.17;12.93;;;;;;;-2.88;79.05;101107.50;5062014;28;20060;-86
2021/12/13 00:55:35;;;;;;;39.28;13.48;;;;;;;-2.97;78.96;101098.22;5072447;28;20072;-87
2021/12/13 00:58:21;;;;;;;35.50;13.68;;;;;;;-2.92;79.23;101122.50;5058495;28;20117;-88
2021/12/13 01:01:03;;;;;;;37.60;12.90;;;;;;;-2.96;79.11;101108.56;5060665;28;20053;-89
2021/12/13 01:03:48;;;;;;;36.80;13.98;;;;;;;-3.02;79.22;101102.09;5065402;28;20049;-89
2021/12/13 01:06:37;;;;;;;41.78;13.05;;;;;;;-3.01;79.32;101111.53;5070826;28;20057;-87
2021/12/13 01:09:42;;;;;;;35.65;13.50;;;;;;;-3.02;79.24;101107.19;5072993;28;20053;-89
2021/12/13 01:12:14;;;;;;;37.85;14.02;;;;;;;-3.01;79.47;101104.78;5055933;28;20075;-88
2021/12/13 01:14:56;;;;;;;42.20;13.52;;;;;;;-2.99;79.39;101110.91;5055158;28;20059;-88
2021/12/13 01:17:54;;;;;;;36.35;13.60;;;;;;;-3.23;79.67;101088.53;5054920;28;20044;-87
2021/12/13 01:20:41;;;;;;;35.80;13.52;;;;;;;-3.02;79.25;101105.53;5054064;28;20562;-86
2021/12/13 01:23:16;;;;;;;39.33;13.82;;;;;;;-3.07;79.35;101111.06;5054340;28;20576;-85
2021/12/13 01:26:01;;;;;;;32.13;11.43;;;;;;;-3.11;79.19;101107.38;5036727;28;20059;-87
2021/12/13 01:28:42;;;;;;;32.20;12.10;;;;;;;-3.13;79.37;101125.16;5037428;28;20048;-85
2021/12/13 01:31:16;;;;;;;31.60;12.98;;;;;;;-3.15;79.44;101107.91;5056296;28;20091;-86
2021/12/13 01:33:46;;;;;;;34.78;13.35;;;;;;;-3.12;79.44;101116.72;5038695;28;20049;-87
2021/12/13 01:36:21;;;;;;;37.97;12.77;;;;;;;-3.13;79.32;101104.69;5037658;28;20103;-88
2021/12/13 01:38:58;;;;;;;33.80;13.15;;;;;;;-3.11;79.46;101113.38;5063158;28;20061;-88
2021/12/13 01:41:30;;;;;;;33.65;12.18;;;;;;;-3.11;79.48;101115.94;5068651;28;20079;-86
2021/12/13 01:44:03;;;;;;;35.17;12.45;;;;;;;-3.31;79.41;101078.59;5065903;28;20049;-87
2021/12/13 01:46:35;;;;;;;33.35;12.55;;;;;;;-3.25;79.60;101084.97;5077184;28;20111;-86
2021/12/13 01:49:04;;;;;;;34.63;13.13;;;;;;;-3.21;79.46;101102.31;5053946;28;20052;-86
2021/12/13 01:51:33;;;;;;;34.78;12.27;;;;;;;-3.22;79.61;101093.75;5054249;28;20072;-86
2021/12/13 01:54:07;;;;;;;32.92;12.98;;;;;;;-3.17;79.52;101089.88;5054455;28;20053;-86
2021/12/13 01:56:58;;;;;;;34.78;12.90;;;;;;;-3.41;79.29;101057.34;5054187;28;20060;-86
2021/12/13 02:02:12;;;;;;;39.45;13.68;;;;;;;-3.25;79.53;101093.50;5053299;28;20079;-86
2021/12/13 02:04:40;;;;;;;34.58;12.57;;;;;;;-3.27;79.51;101089.06;5054162;28;20063;-87
2021/12/13 02:07:09;;;;;;;35.47;12.63;;;;;;;-3.38;79.27;101062.66;5069221;28;20056;-87
2021/12/13 02:09:40;;;;;;;34.80;13.73;;;;;;;-3.24;79.52;101087.66;5053741;28;20087;-88
2021/12/13 02:12:16;;;;;;;32.28;12.57;;;;;;;-3.18;79.66;101097.47;5035719;28;20053;-85
2021/12/13 02:16:56;;;;;;;41.90;14.48;;;;;;;-3.33;79.47;101066.50;5036311;28;20057;-84
2021/12/13 02:17:42;;;;;;;37.17;13.60;;;;;;;-3.15;79.46;101097.69;5053809;28;20060;-84
2021/12/13 02:20:18;;;;;;;40.47;12.20;;;;;;;-3.14;79.70;101102.00;5058230;28;20056;-86
2021/12/13 02:22:52;;;;;;;34.22;12.70;;;;;;;-3.11;79.83;101100.59;5062199;28;20079;-86
2021/12/13 02:25:51;;;;;;;36.13;13.35;;;;;;;-3.01;79.38;101074.09;5067756;28;20044;-85
2021/12/13 02:28:24;;;;;;;38.30;13.17;;;;;;;-2.97;79.58;101091.44;5051389;28;20049;-83
2021/12/13 02:31:02;;;;;;;38.45;14.05;;;;;;;-2.98;79.24;101089.66;5074784;28;20302;-85
2021/12/13 02:33:37;;;;;;;39.30;14.57;;;;;;;-3.05;79.39;101094.16;5055827;28;20076;-83
2021/12/13 02:36:08;;;;;;;40.95;14.18;;;;;;;-3.12;79.66;101087.69;5073146;28;20053;-83
2021/12/13 02:38:36;;;;;;;;;;;;;;;-3.25;79.83;101077.28;5060377;28;20057;-85
2021/12/13 02:41:06;;;;;;;44.42;13.95;;;;;;;-3.21;79.61;101069.09;5053907;28;20483;-84
2021/12/13 02:43:38;;;;;;;45.30;16.73;;;;;;;-3.21;80.31;101069.09;5055186;28;20152;-84
2021/12/13 02:46:05;;;;;;;48.15;14.93;;;;;;;-3.36;79.84;101041.56;5037065;28;20428;-84
2021/12/13 02:48:41;;;;;;;44.20;16.00;;;;;;;-3.20;80.04;101064.09;5058356;28;20160;-85
2021/12/13 02:51:21;;;;;;;42.53;14.93;;;;;;;-3.20;79.79;101071.78;5039564;28;20052;-84
2021/12/13 02:53:50;;;;;;;45.13;15.13;;;;;;;-3.37;80.09;101042.34;5057908;28;20056;-85
2021/12/13 02:56:20;;;;;;;46.70;14.80;;;;;;;-3.15;80.01;101078.13;5060743;28;20417;-85
2021/12/13 02:58:49;;;;;;;46.33;15.23;;;;;;;-3.12;80.31;101067.22;5059488;28;20057;-86
2021/12/13 03:01:28;;;;;;;42.78;15.20;;;;;;;-3.05;80.25;101066.03;5056448;28;20044;-84
2021/12/13 03:04:00;;;;;;;40.08;14.13;;;;;;;-3.08;80.03;101069.25;5039406;28;20057;-84
2021/12/13 03:06:33;;;;;;;48.22;16.75;;;;;;;-3.11;80.23;101054.59;5023641;28;20072;-85
2021/12/13 03:09:11;;;;;;;43.13;14.32;;;;;;;-3.05;80.03;101055.81;5057317;28;20060;-84
2021/12/13 03:11:38;;;;;;;49.25;15.90;;;;;;;-3.16;80.38;101065.22;5057420;28;20059;-86
2021/12/13 03:14:09;;;;;;;47.80;16.48;;;;;;;-3.07;80.39;101054.84;5040002;28;20075;-87
2021/12/13 03:16:47;;;;;;;50.60;16.67;;;;;;;-3.07;79.77;101063.38;5040406;28;20025;-86
2021/12/13 03:19:22;;;;;;;47.42;16.25;;;;;;;-3.15;79.99;101052.56;5057308;28;20069;-86
2021/12/13 03:22:03;;;;;;;53.20;16.70;;;;;;;-3.17;80.41;101054.09;5040159;28;20059;-85
2021/12/13 03:24:38;;;;;;;51.22;16.52;;;;;;;-3.18;80.45;101042.13;5039720;28;20124;-85
2021/12/13 03:27:43;;;;;;;56.38;18.88;;;;;;;-3.14;80.40;101030.44;5057012;28;20041;-85
2021/12/13 03:30:29;;;;;;;53.22;16.38;;;;;;;-3.24;80.28;101013.53;5056912;28;20543;-84
2021/12/13 03:33:12;;;;;;;52.17;17.42;;;;;;;-3.09;80.09;101036.81;5039083;28;20095;-86
2021/12/13 03:35:54;;;;;;;52.05;16.77;;;;;;;-3.15;80.27;101021.00;5066452;28;20059;-85
2021/12/13 03:38:28;;;;;;;54.75;17.35;;;;;;;-3.07;80.31;101048.06;5058328;28;20057;-85
2021/12/13 03:41:01;;;;;;;55.53;18.40;;;;;;;-3.01;80.44;101040.84;5056167;28;20052;-86
2021/12/13 03:43:36;;;;;;;61.20;19.98;;;;;;;-3.09;80.20;101045.38;5039540;28;20060;-86
2021/12/13 03:46:06;;;;;;;57.45;18.67;;;;;;;-3.17;80.33;101033.66;5056696;28;20060;-86
2021/12/13 03:48:35;;;;;;;55.63;18.15;;;;;;;-3.16;80.49;101040.56;5039722;28;20056;-86
2021/12/13 03:51:10;;;;;;;60.42;17.70;;;;;;;-3.10;80.39;101045.25;5057850;28;20135;-85
2021/12/13 03:53:37;;;;;;;57.17;19.25;;;;;;;-3.07;80.37;101039.50;5055538;28;20397;-86
2021/12/13 03:56:10;;;;;;;60.55;18.10;;;;;;;-3.05;80.34;101035.38;5055520;28;20152;-86
2021/12/13 03:58:44;;;;;;;55.67;17.92;;;;;;;-3.00;80.21;101037.50;5054767;28;20049;-86
2021/12/13 04:01:22;;;;;;;56.60;19.38;;;;;;;-3.14;80.55;101031.34;5054869;28;20048;-85
2021/12/13 04:03:55;;;;;;;62.85;18.98;;;;;;;-3.10;80.27;101033.38;5055801;28;20084;-84
2021/12/13 04:06:23;;;;;;;55.97;18.20;;;;;;;-3.10;80.47;101048.72;5055990;28;20091;-86
2021/12/13 04:08:55;;;;;;;74.47;19.23;;;;;;;-3.09;80.38;101042.81;5057298;28;20048;-85
2021/12/13 04:11:26;;;;;;;68.05;19.40;;;;;;;-3.10;80.55;101038.50;5055076;28;20080;-85
2021/12/13 04:14:05;;;;;;;60.45;21.90;;;;;;;-3.18;80.55;101039.56;5066154;28;20048;-85
2021/12/13 04:16:50;;;;;;;64.93;19.17;;;;;;;-3.11;80.67;101053.69;5072340;28;20049;-85
2021/12/13 04:19:21;;;;;;;63.05;20.90;;;;;;;-3.10;80.56;101023.16;5072988;28;20044;-87
2021/12/13 04:21:55;;;;;;;67.60;21.13;;;;;;;-3.08;80.82;101033.47;5058699;28;20049;-86
2021/12/13 04:24:31;;;;;;;69.35;20.30;;;;;;;-3.05;80.90;101033.72;5055202;28;20052;-87
2021/12/13 04:27:04;;;;;;;66.30;20.67;;;;;;;-3.11;80.83;101021.34;5037038;28;20120;-85
2021/12/13 04:29:36;;;;;;;58.38;18.60;;;;;;;-2.95;80.53;101022.50;5054893;28;20063;-85
2021/12/13 04:32:27;;;;;;;64.20;21.88;;;;;;;-2.90;80.68;101032.31;5036258;28;20472;-84
2021/12/13 04:34:57;;;;;;;64.78;21.13;;;;;;;-2.96;80.49;100997.72;5054998;28;20057;-84
2021/12/13 04:37:26;;;;;;;;;;;;;;;-3.01;80.04;101015.28;5054230;28;20479;-86
2021/12/13 04:40:00;;;;;;;73.80;21.00;;;;;;;-3.01;80.38;101012.72;5070130;28;19928;-85
2021/12/13 04:42:30;;;;;;;66.43;21.40;;;;;;;-3.04;80.59;101003.94;5038068;28;20468;-84
2021/12/13 04:45:09;;;;;;;73.97;22.85;;;;;;;-2.97;80.31;100994.28;5031013;28;20045;-87
2021/12/13 04:47:48;;;;;;;77.10;22.10;;;;;;;-2.86;80.21;101012.09;5037110;28;20099;-89
2021/12/13 04:50:19;;;;;;;84.18;23.35;;;;;;;-2.86;80.35;100999.28;5056016;28;20049;-86
2021/12/13 04:52:48;;;;;;;74.30;22.48;;;;;;;-2.86;80.13;100995.09;5057550;28;20183;-88
2021/12/13 04:55:44;;;;;;;76.10;24.13;;;;;;;-2.92;80.04;101005.75;5055059;28;20063;-87
2021/12/13 04:58:13;;;;;;;71.03;23.38;;;;;;;-2.97;80.47;100993.38;5051304;28;20543;-86
2021/12/13 05:00:44;;;;;;;76.60;22.90;;;;;;;-3.09;80.56;100971.22;5037171;28;20064;-86
2021/12/13 05:03:15;;;;;;;71.53;22.92;;;;;;;-3.08;80.41;100984.91;5038424;28;20048;-88
2021/12/13 05:05:44;;;;;;;84.30;23.00;;;;;;;-3.03;80.63;100983.59;5037841;28;20049;-87
2021/12/13 05:08:15;;;;;;;79.88;23.27;;;;;;;-2.94;80.62;100989.41;5055382;28;20049;-85
2021/12/13 05:10:49;;;;;;;81.47;23.67;;;;;;;-3.01;80.48;100976.03;5037098;28;20417;-87
2021/12/13 05:13:24;;;;;;;73.95;23.05;;;;;;;-2.98;80.25;100978.81;5069840;28;20099;-87
2021/12/13 05:15:56;;;;;;;72.93;24.55;;;;;;;-3.13;80.09;100963.22;5054245;28;20057;-85
2021/12/13 05:18:28;;;;;;;73.45;23.27;;;;;;;-3.09;80.19;100985.69;5035776;28;20528;-85
2021/12/13 05:20:59;;;;;;;69.38;20.48;;;;;;;-3.03;80.35;100990.34;5054041;28;20412;-85
2021/12/13 05:23:29;;;;;;;77.70;23.75;;;;;;;-3.02;80.30;101000.69;5054714;28;20078;-87
2021/12/13 05:26:03;;;;;;;75.72;23.42;;;;;;;-3.04;80.17;100981.81;5037003;28;20147;-86
2021/12/13 05:28:44;;;;;;;70.65;23.67;;;;;;;-2.92;80.37;101005.75;5053741;28;20103;-87
2021/12/13 05:31:23;;;;;;;71.30;21.90;;;;;;;-2.95;80.27;100977.38;5035329;28;20164;-87
2021/12/13 05:33:57;;;;;;;66.82;21.27;;;;;;;-2.76;80.00;101002.66;5054108;28;20048;-85
2021/12/13 05:36:32;;;;;;;67.72;22.05;;;;;;;-2.74;79.71;101008.78;5053624;28;20516;-85
2021/12/13 05:39:20;;;;;;;64.85;23.10;;;;;;;-2.79;79.81;101009.22;5053674;28;20077;-85
2021/12/13 05:41:55;;;;;;;63.53;23.13;;;;;;;-2.81;79.74;100996.31;5039358;28;20049;-85
2021/12/13 05:44:29;;;;;;;66.82;20.95;;;;;;;-2.80;79.83;100992.09;5053299;28;20064;-85
2021/12/13 05:46:56;;;;;;;74.45;21.83;;;;;;;-2.89;79.45;100985.50;5054178;28;20410;-85
2021/12/13 05:49:30;;;;;;;76.18;23.33;;;;;;;-2.78;79.63;101009.31;5052717;28;20083;-84
2021/12/13 05:52:14;;;;;;;72.70;22.08;;;;;;;-2.94;79.60;101002.19;5019434;28;20473;-86
2021/12/13 05:54:54;;;;;;;70.82;25.00;;;;;;;-2.82;79.80;101020.09;5053459;28;20044;-86
2021/12/13 05:57:29;;;;;;;77.30;23.58;;;;;;;-2.96;79.75;100990.94;5035825;28;20057;-86
2021/12/13 06:00:08;;;;;;;86.78;25.88;;;;;;;-2.87;79.96;101018.88;5054552;28;20049;-86
2021/12/13 06:03:03;;;;;;;75.47;21.90;;;;;;;-2.82;79.63;101014.97;5054422;28;20057;-84
2021/12/13 06:05:36;;;;;;;70.68;23.17;;;;;;;-2.88;79.88;101012.88;5058389;28;20061;-84
2021/12/13 06:08:13;;;;;;;74.00;23.90;;;;;;;-2.89;79.79;101015.31;5060690;28;20048;-84
2021/12/13 06:10:47;;;;;;;67.03;23.08;;;;;;;-2.85;79.67;101004.53;5074229;28;20095;-86
2021/12/13 06:13:43;;;;;;;64.32;21.70;;;;;;;-2.82;79.86;101002.19;5064255;28;20527;-86
2021/12/13 06:16:19;;;;;;;65.00;22.13;;;;;;;-2.82;79.41;100989.41;5067939;28;20393;-86
2021/12/13 06:18:59;;;;;;;68.05;21.98;;;;;;;-2.71;79.09;101008.09;5064102;28;20048;-87
2021/12/13 06:21:48;;;;;;;72.38;24.10;;;;;;;-2.75;79.45;101004.47;5051059;28;20075;-87
2021/12/13 06:24:24;;;;;;;64.00;21.88;;;;;;;-2.75;79.21;101012.13;5101295;28;20056;-85
2021/12/13 06:27:01;;;;;;;67.60;23.20;;;;;;;-2.76;79.19;101009.44;5089769;28;20033;-86
2021/12/13 06:29:50;;;;;;;64.30;22.70;;;;;;;-2.92;79.37;100992.06;5063391;28;20083;-85
2021/12/13 06:32:35;;;;;;;64.97;22.70;;;;;;;-2.84;78.95;100997.75;5075987;28;20056;-85
2021/12/13 06:35:50;;;;;;;66.90;22.42;;;;;;;-2.81;79.43;101004.00;5075626;28;20115;-87
2021/12/13 06:38:20;;;;;;;65.88;23.30;;;;;;;-2.77;79.28;101006.00;5036146;28;20050;-88
2021/12/13 06:41:05;;;;;;;64.32;21.27;;;;;;;-2.71;78.71;101000.44;5075042;28;20033;-87
2021/12/13 06:43:34;;;;;;;60.85;20.98;;;;;;;-2.91;78.81;100975.94;5090757;28;20057;-86
2021/12/13 06:46:06;;;;;;;68.32;22.90;;;;;;;-2.73;79.13;101013.13;5085227;28;20110;-86
2021/12/13 06:48:44;;;;;;;62.40;21.35;;;;;;;-2.69;78.90;101019.34;5086340;28;20049;-86
2021/12/13 06:51:17;;;;;;;67.15;23.38;;;;;;;-2.51;78.77;101012.16;5061566;28;20025;-88
2021/12/13 06:54:01;;;;;;;60.40;21.90;;;;;;;-2.52;79.02;101018.97;5095803;28;20059;-86
2021/12/13 06:56:31;;;;;;;62.72;22.15;;;;;;;-2.78;78.59;100970.06;5062566;28;20048;-87
2021/12/13 06:59:14;;;;;;;62.97;23.98;;;;;;;-2.59;78.77;101006.47;5062379;28;20112;-87
2021/12/13 07:01:42;;;;;;;60.83;22.25;;;;;;;-2.69;78.59;100991.22;5060842;28;20060;-85
2021/12/13 07:04:12;;;;;;;62.70;22.08;;;;;;;-2.55;78.61;101013.59;5074952;28;20076;-85
2021/12/13 07:06:44;;;;;;;61.70;22.35;;;;;;;-2.58;78.41;100986.88;5070956;28;20055;-86
2021/12/13 07:09:13;;;;;;;62.97;23.25;;;;;;;-2.42;78.54;101009.41;5070761;28;20060;-85
2021/12/13 07:11:51;;;;;;;58.13;22.00;;;;;;;-2.42;78.11;100996.59;5065023;28;20076;-88
2021/12/13 07:14:30;;;;;;;54.28;23.33;;;;;;;-2.44;78.02;100991.38;5056622;28;20048;-86
2021/12/13 07:17:13;;;;;;;63.65;23.40;;;;;;;-2.31;78.01;101017.06;5064480;28;20052;-86
2021/12/13 07:19:44;;;;;;;62.20;23.92;;;;;;;-2.29;77.79;101014.63;5077118;28;20053;-87
2021/12/13 07:22:17;;;;;;;57.97;21.92;;;;;;;-2.31;77.57;100993.16;5058178;28;20459;-84
2021/12/13 07:24:52;;;;;;;60.50;21.95;;;;;;;-2.16;77.44;101013.84;5076883;28;20148;-86
2021/12/13 07:27:33;;;;;;;57.60;21.42;;;;;;;-2.28;77.28;101014.75;5058905;28;20048;-88
2021/12/13 07:30:17;;;;;;;58.28;21.85;;;;;;;-2.32;77.34;101015.31;5077342;28;20105;-87
2021/12/13 07:32:59;;;;;;;66.07;23.60;;;;;;;-2.32;77.97;101017.88;5060107;28;20052;-87
2021/12/13 07:35:43;;;;;;;61.10;22.65;;;;;;;-2.22;77.37;101018.53;5077862;28;20052;-91
2021/12/13 07:38:22;;;;;;;54.13;21.92;;;;;;;-2.28;77.10;100985.69;5083801;28;20099;-83
2021/12/13 07:41:06;;;;;;;53.95;22.05;;;;;;;-2.24;77.10;101005.59;5090523;28;20480;-87
2021/12/13 07:43:42;;;;;;;57.78;22.83;;;;;;;-2.19;77.19;100999.16;5075185;28;20079;-88
2021/12/13 07:46:24;;;;;;;57.72;22.38;;;;;;;-2.22;77.10;100973.31;5069364;28;20083;-90
2021/12/13 07:48:55;;;;;;;59.60;22.35;;;;;;;-2.20;76.84;100974.31;5064520;28;20040;-89
2021/12/13 07:51:30;;;;;;;61.70;23.55;;;;;;;-2.09;76.64;100999.06;5062500;28;20518;-90
2021/12/13 07:53:57;;;;;;;57.63;22.27;;;;;;;-2.08;77.14;100995.69;5061324;28;20099;-88
2021/12/13 07:56:39;;;;;;;62.53;23.05;;;;;;;-2.13;76.58;100983.34;5059590;28;20060;-88
2021/12/13 07:59:22;;;;;;;58.00;21.80;;;;;;;-2.09;77.14;101005.81;5060020;28;20064;-88
2021/12/13 08:01:56;;;;;;;55.25;21.40;;;;;;;-2.03;76.85;100992.59;5024863;28;20052;-88
2021/12/13 08:04:28;;;;;;;60.03;21.98;;;;;;;-2.00;76.50;100992.78;5075772;28;20523;-90
2021/12/13 08:07:07;;;;;;;57.22;22.15;;;;;;;-2.01;76.76;100981.66;5076625;28;20052;-94
2021/12/13 08:10:00;;;;;;;56.05;21.63;;;;;;;-1.97;76.24;100990.47;5064187;28;20048;-90
2021/12/13 08:13:02;;;;;;;61.75;22.42;;;;;;;-2.01;76.40;100975.66;5077660;28;20052;-87
2021/12/13 08:15:39;;;;;;;53.85;21.52;;;;;;;-1.97;76.78;100977.66;5049362;28;20058;-86
2021/12/13 08:18:30;;;;;;;56.75;21.75;;;;;;;-2.04;76.20;100968.66;5041443;28;20497;-90
2021/12/13 08:21:05;;;;;;;57.97;22.50;;;;;;;-2.02;76.49;100974.78;5088034;28;20052;-86
2021/12/13 08:23:43;;;;;;;61.25;22.92;;;;;;;-2.01;76.70;100984.22;5054584;28;20048;-87
2021/12/13 08:26:15;;;;;;;64.57;23.85;;;;;;;-2.06;76.58;100970.22;5078403;28;20048;-89
2021/12/13 08:28:49;;;;;;;56.97;23.42;;;;;;;-1.89;76.57;100982.53;5044942;28;20060;-91
2021/12/13 08:31:24;;;;;;;54.53;21.30;;;;;;;-1.76;76.20;100978.28;5045135;28;20057;-86
2021/12/13 08:34:03;;;;;;;50.33;20.42;;;;;;;-1.89;76.25;100966.28;5038857;28;20045;-90
2021/12/13 08:36:34;;;;;;;52.42;19.70;;;;;;;-1.81;76.50;100987.31;5056410;28;20060;-88
2021/12/13 08:39:07;;;;;;;56.17;21.27;;;;;;;-1.85;76.78;100991.31;5039149;28;20089;-85
2021/12/13 08:41:55;;;;;;;54.50;21.23;;;;;;;-1.94;76.61;100970.19;5080457;28;20072;-85
2021/12/13 08:44:28;;;;;;;52.78;19.80;;;;;;;-1.89;76.28;100982.53;5041163;28;20362;-86
2021/12/13 08:47:06;;;;;;;54.05;21.70;;;;;;;-1.92;76.70;100978.88;5037031;28;20057;-84
2021/12/13 08:49:45;;;;;;;55.00;21.13;;;;;;;-1.80;76.77;100982.31;5054935;28;20523;-85
2021/12/13 08:52:30;;;;;;;56.20;20.67;;;;;;;-1.73;76.34;100991.31;5054221;28;20532;-86
2021/12/13 08:55:17;;;;;;;55.85;21.75;;;;;;;-1.66;75.98;100984.19;5055437;28;20057;-86
2021/12/13 08:57:46;;;;;;;55.08;22.38;;;;;;;-1.72;76.47;100977.69;5058119;28;20045;-87
2021/12/13 09:00:13;;;;;;;52.67;21.90;;;;;;;-1.70;76.61;100983.81;5063547;28;20053;-86
2021/12/13 09:02:49;;;;;;;52.92;20.48;;;;;;;-1.70;76.48;100964.25;5067281;28;20067;-83
2021/12/13 09:05:23;;;;;;;53.03;21.20;;;;;;;-1.63;76.44;100967.19;5048760;28;20116;-83
2021/12/13 09:08:02;;;;;;;55.22;21.38;;;;;;;-1.62;76.43;100979.25;5061661;28;20065;-86
2021/12/13 09:10:38;;;;;;;54.95;21.58;;;;;;;-1.65;76.22;100973.13;5054913;28;20055;-85
2021/12/13 09:13:06;;;;;;;49.33;21.15;;;;;;;-1.80;76.41;100949.00;5053509;28;20057;-83
2021/12/13 09:15:36;;;;;;;55.40;20.33;;;;;;;-1.69;76.64;100957.44;5035294;28;20528;-84
2021/12/13 09:18:04;;;;;;;51.03;21.55;;;;;;;-1.65;76.51;100949.19;5035632;28;20092;-84
2021/12/13 09:20:54;;;;;;;50.30;20.73;;;;;;;-1.49;76.45;100951.13;5051949;28;20429;-85
2021/12/13 09:23:36;;;;;;;50.85;21.10;;;;;;;-1.51;76.40;100942.44;5066896;28;20428;-84
2021/12/13 09:26:19;;;;;;;50.17;22.92;;;;;;;-1.32;76.54;100975.34;5074431;28;20056;-85
2021/12/13 09:29:01;;;;;;;50.35;20.95;;;;;;;-1.18;76.35;100961.81;5058438;28;20063;-86
2021/12/13 09:31:36;;;;;;;47.33;19.27;;;;;;;-1.01;76.08;100962.03;5036580;28;20508;-85
2021/12/13 09:34:19;;;;;;;49.70;20.85;;;;;;;-1.19;75.98;100944.63;5054266;28;20140;-83
2021/12/13 09:36:51;;;;;;;50.15;20.00;;;;;;;-1.17;76.47;100939.63;5019452;28;20103;-86
2021/12/13 09:39:30;;;;;;;46.72;19.48;;;;;;;-1.16;76.39;100949.06;5061487;28;20111;-87
2021/12/13 09:42:07;;;;;;;51.17;21.00;;;;;;;-1.27;76.66;100930.41;5076573;28;20048;-87
2021/12/13 09:44:45;;;;;;;50.38;20.60;;;;;;;-1.06;76.40;100943.78;5055615;28;20452;-86
2021/12/13 09:47:16;;;;;;;45.17;19.55;;;;;;;-1.03;76.09;100926.06;5074084;28;20473;-84
2021/12/13 09:50:03;;;;;;;46.97;20.25;;;;;;;-1.00;76.24;100920.22;5073952;28;20053;-86
2021/12/13 09:52:43;;;;;;;44.85;19.75;;;;;;;-0.80;76.02;100916.41;5064248;28;20189;-85
2021/12/13 09:55:26;;;;;;;45.45;20.73;;;;;;;-0.65;76.22;100928.56;5074965;28;20083;-88
2021/12/13 09:58:19;;;;;;;47.67;19.05;;;;;;;-0.71;75.70;100907.66;5059982;28;20075;-87
2021/12/13 10:00:55;;;;;;;46.30;19.60;;;;;;;-0.71;76.11;100917.91;5045069;28;20060;-87
2021/12/13 10:03:42;;;;;;;50.58;20.60;;;;;;;-0.63;75.70;100918.38;5080968;28;20052;-84
2021/12/13 10:06:10;;;;;;;44.67;20.27;;;;;;;-0.74;76.39;100915.13;5060530;28;20111;-87
2021/12/13 10:08:49;;;;;;;51.80;22.00;;;;;;;-0.79;76.27;100908.81;5076749;28;20056;-85
2021/12/13 10:11:32;;;;;;;45.92;20.13;;;;;;;-0.84;76.18;100907.59;5062564;28;20079;-86
2021/12/13 10:14:01;;;;;;;50.58;21.52;;;;;;;-0.87;76.81;100908.31;5076964;28;20052;-85
2021/12/13 10:16:32;;;;;;;43.58;18.75;;;;;;;-0.89;76.32;100883.34;5075662;28;20135;-85
2021/12/13 10:19:02;;;;;;;47.47;21.45;;;;;;;-0.85;76.47;100878.50;5076721;28;20456;-88
2021/12/13 10:21:33;;;;;;;45.13;20.47;;;;;;;-0.66;76.21;100884.84;5077157;28;20143;-87
2021/12/13 10:24:06;;;;;;;41.83;17.92;;;;;;;-0.68;76.54;100884.75;5059266;28;20053;-85
2021/12/13 10:26:38;;;;;;;40.80;18.95;;;;;;;-0.65;76.54;100882.34;5052762;28;20048;-85
2021/12/13 10:29:08;;;;;;;42.88;19.73;;;;;;;-0.49;75.96;100885.94;5073407;28;20052;-83
2021/12/13 10:31:47;;;;;;;44.33;19.17;;;;;;;-0.56;76.12;100886.31;5099316;28;20052;-84
2021/12/13 10:34:45;;;;;;;41.97;18.58;;;;;;;-0.62;76.09;100890.28;5099234;28;20049;-84
2021/12/13 10:37:26;;;;;;;44.95;18.50;;;;;;;-0.79;76.66;100875.47;5098420;28;20033;-82
2021/12/13 10:40:17;;;;;;;40.33;18.70;;;;;;;-0.73;76.75;100881.00;5082889;28;20040;-86
2021/12/13 10:42:56;;;;;;;;;;;;;;;-0.71;77.14;100884.56;5099360;28;20059;-85
2021/12/13 10:45:30;;;;;;;37.20;17.52;;;;;;;-0.65;77.29;100900.31;5084543;28;19924;-87
2021/12/13 10:48:06;;;;;;;43.78;19.15;;;;;;;-0.59;77.11;100898.97;5080371;28;20223;-86
2021/12/13 10:50:39;;;;;;;40.10;17.92;;;;;;;-0.57;77.20;100903.41;5067912;28;20056;-88
2021/12/13 10:53:10;;;;;;;43.67;18.13;;;;;;;-0.66;76.94;100867.75;5063264;28;20044;-86
2021/12/13 10:55:44;;;;;;;;;;;;;;;-0.66;76.95;100892.53;5077933;28;20055;-86
2021/12/13 10:58:22;;;;;;;37.53;16.35;;;;;;;-0.58;77.75;100898.16;5078421;28;19971;-87
2021/12/13 11:00:59;;;;;;;41.33;16.92;;;;;;;-0.45;77.65;100890.47;5081132;28;20502;-87
2021/12/13 11:03:30;;;;;;;40.33;17.42;;;;;;;-0.43;77.38;100887.22;5076859;28;20053;-87
2021/12/13 11:05:59;;;;;;;37.28;16.75;;;;;;;-0.40;77.47;100886.50;5023932;28;20076;-88
2021/12/13 11:08:28;;;;;;;45.47;18.58;;;;;;;-0.34;77.47;100893.72;5038361;28;20081;-88
2021/12/13 11:11:00;;;;;;;37.25;16.42;;;;;;;-0.32;77.72;100900.72;5056997;28;20061;-87
2021/12/13 11:13:31;;;;;;;34.80;15.55;;;;;;;-0.28;77.82;100891.53;5022874;28;20147;-87
2021/12/13 11:16:04;;;;;;;35.03;16.58;;;;;;;-0.24;78.02;100902.09;5057176;28;20052;-88
2021/12/13 11:18:33;;;;;;;36.10;15.40;;;;;;;-0.23;77.57;100893.59;5022798;28;20045;-87
2021/12/13 11:21:23;;;;;;;31.80;15.35;;;;;;;-0.25;78.27;100884.03;5056283;28;20111;-88
2021/12/13 11:23:52;;;;;;;33.78;15.15;;;;;;;-0.22;77.97;100905.63;5057417;28;20163;-87
2021/12/13 11:26:23;;;;;;;31.35;14.50;;;;;;;-0.13;77.83;100896.72;5056305;28;20056;-88
2021/12/13 11:28:51;;;;;;;35.90;15.52;;;;;;;-0.09;78.14;100894.44;5057020;28;20057;-87
2021/12/13 11:31:30;;;;;;;32.15;15.18;;;;;;;-0.03;77.77;100899.09;5059934;28;20052;-88
2021/12/13 11:34:04;;;;;;;27.40;13.88;;;;;;;-0.01;78.06;100898.38;5040529;28;20415;-90
2021/12/13 11:36:31;;;;;;;30.08;13.98;;;;;;;0.02;77.81;100900.25;5040846;28;20056;-87
2021/12/13 11:39:36;;;;;;;27.65;13.80;;;;;;;-0.01;77.18;100893.25;5024040;28;20075;-87
2021/12/13 11:42:21;;;;;;;28.02;13.80;;;;;;;-0.04;78.02;100895.63;5057245;28;20045;-87
2021/12/13 11:44:58;;;;;;;28.25;13.57;;;;;;;-0.02;77.43;100895.75;5042187;28;20044;-88
2021/12/13 11:48:18;;;;;;;26.13;12.57;;;;;;;-0.03;77.81;100893.94;5056655;28;20057;-87
2021/12/13 11:51:23;;;;;;;26.08;12.98;;;;;;;0.04;77.85;100880.69;4980694;28;20139;-88
2021/12/13 11:54:21;;;;;;;26.98;13.05;;;;;;;-0.03;77.67;100878.53;5043719;28;20083;-87
2021/12/13 11:57:18;;;;;;;27.67;12.20;;;;;;;0.03;77.97;100873.78;5057021;28;20060;-86
2021/12/13 12:00:02;;;;;;;24.45;12.30;;;;;;;0.01;77.93;100877.06;5023381;28;20087;-89